createdAt,value
2023-05-07T00:01:25.042Z,12.80
2023-05-07T00:03:53.135Z,13.63
2023-05-07T00:06:21.213Z,15.67
2023-05-07T00:08:49.452Z,12.17
2023-05-07T00:11:17.626Z,12.70
2023-05-07T00:13:45.575Z,11.73
2023-05-07T00:16:14.994Z,12.63
2023-05-07T00:18:43.031Z,12.57
2023-05-07T00:21:11.212Z,12.47
2023-05-07T00:23:39.173Z,13.27
2023-05-07T00:26:07.201Z,12.43
2023-05-07T00:28:35.363Z,13.50
2023-05-07T00:31:05.780Z,17.53
2023-05-07T00:33:35.128Z,14.43
2023-05-07T00:36:03.145Z,14.77
2023-05-07T00:38:31.140Z,13.23
2023-05-07T00:40:59.080Z,18.03
2023-05-07T00:43:28.436Z,17.07
2023-05-07T00:45:56.665Z,16.07
2023-05-07T00:48:27.003Z,13.57
2023-05-07T00:50:56.518Z,16.90
2023-05-07T00:53:24.665Z,16.37
2023-05-07T00:55:52.906Z,14.57
2023-05-07T00:58:21.711Z,17.47
2023-05-07T01:00:49.686Z,16.30
2023-05-07T01:03:17.681Z,16.70
2023-05-07T01:05:50.240Z,16.27
2023-05-07T01:08:20.514Z,16.07
2023-05-07T01:10:49.267Z,15.57
2023-05-07T01:13:18.045Z,14.73
2023-05-07T01:15:46.303Z,16.40
2023-05-07T01:18:14.450Z,16.47
2023-05-07T01:20:42.709Z,15.70
2023-05-07T01:23:13.707Z,16.07
2023-05-07T01:25:41.684Z,17.97
2023-05-07T01:28:09.629Z,16.43
2023-05-07T01:30:39.011Z,16.23
2023-05-07T01:33:11.009Z,17.20
2023-05-07T01:35:43.840Z,19.03
2023-05-07T01:38:14.605Z,18.63
2023-05-07T01:40:43.182Z,17.87
2023-05-07T01:43:12.469Z,17.47
2023-05-07T01:45:41.230Z,17.50
2023-05-07T01:48:10.679Z,14.93
2023-05-07T01:50:39.669Z,15.30
2023-05-07T01:53:07.611Z,13.60
2023-05-07T01:55:37.759Z,12.97
2023-05-07T01:58:05.915Z,12.50
2023-05-07T02:00:34.097Z,11.67
2023-05-07T02:03:02.225Z,11.13
2023-05-07T02:05:30.408Z,12.33
2023-05-07T02:07:58.420Z,12.77
2023-05-07T02:10:26.529Z,11.50
2023-05-07T02:12:56.062Z,10.53
2023-05-07T02:15:24.023Z,10.23
2023-05-07T02:18:02.306Z,9.57
2023-05-07T02:20:30.845Z,11.80
2023-05-07T02:22:58.892Z,10.47
2023-05-07T02:25:26.863Z,11.47
2023-05-07T02:27:56.521Z,9.63
2023-05-07T02:30:24.772Z,9.47
2023-05-07T02:32:53.252Z,8.47
2023-05-07T02:35:21.245Z,8.57
2023-05-07T02:37:49.202Z,8.83
2023-05-07T02:40:17.420Z,8.87
2023-05-07T02:42:45.391Z,7.80
2023-05-07T02:45:15.416Z,8.20
2023-05-07T02:47:43.430Z,8.50
2023-05-07T02:50:12.334Z,7.53
2023-05-07T02:52:40.611Z,6.67
2023-05-07T02:55:09.462Z,6.53
2023-05-07T02:57:37.447Z,5.77
2023-05-07T03:00:15.713Z,5.60
2023-05-07T03:02:43.978Z,5.17
2023-05-07T03:05:12.753Z,5.90
2023-05-07T03:07:40.880Z,4.10
2023-05-07T03:10:09.576Z,3.60
2023-05-07T03:12:37.691Z,3.87
2023-05-07T03:15:07.943Z,3.30
2023-05-07T03:17:37.272Z,3.37
2023-05-07T03:20:06.110Z,3.80
2023-05-07T03:22:34.249Z,3.47
2023-05-07T03:25:02.422Z,2.90
2023-05-07T03:27:30.394Z,3.10
2023-05-07T03:29:58.353Z,4.37
2023-05-07T03:32:26.661Z,2.80
2023-05-07T03:34:56.720Z,3.00
2023-05-07T03:37:24.682Z,2.90
2023-05-07T03:39:52.639Z,3.43
2023-05-07T03:42:20.664Z,3.00
2023-05-07T03:44:48.727Z,2.70
2023-05-07T03:47:16.700Z,2.53
2023-05-07T03:49:44.881Z,3.47
2023-05-07T03:52:15.235Z,2.50
2023-05-07T03:54:43.260Z,2.83
2023-05-07T03:57:11.349Z,3.43
2023-05-07T03:59:39.526Z,2.90
2023-05-07T04:02:07.619Z,3.23
2023-05-07T04:04:35.621Z,3.03
2023-05-07T04:07:04.000Z,5.83
2023-05-07T04:09:33.422Z,5.77
2023-05-07T04:12:02.291Z,6.27
2023-05-07T04:14:31.371Z,5.33
2023-05-07T04:16:59.659Z,4.27
2023-05-07T04:19:27.680Z,3.50
2023-05-07T04:21:55.655Z,4.13
2023-05-07T04:24:23.688Z,2.67
2023-05-07T04:26:53.653Z,2.43
2023-05-07T04:29:22.058Z,2.80
2023-05-07T04:31:50.111Z,2.57
2023-05-07T04:34:18.141Z,3.03
2023-05-07T04:36:47.210Z,2.30
2023-05-07T04:39:15.171Z,2.63
2023-05-07T04:41:43.135Z,3.23
2023-05-07T04:44:13.219Z,2.80
2023-05-07T04:46:41.256Z,2.00
2023-05-07T04:49:10.266Z,2.60
2023-05-07T04:51:39.184Z,2.27
2023-05-07T04:54:07.323Z,2.17
2023-05-07T04:56:35.626Z,1.90
2023-05-07T04:59:06.667Z,2.40
2023-05-07T05:01:36.065Z,1.80
2023-05-07T05:04:04.188Z,2.70
2023-05-07T05:06:32.273Z,3.70
2023-05-07T05:09:00.308Z,8.47
2023-05-07T05:11:28.333Z,5.03
2023-05-07T05:13:56.607Z,5.77
2023-05-07T05:16:24.691Z,6.20
2023-05-07T05:18:55.257Z,4.47
2023-05-07T05:21:23.274Z,3.90
2023-05-07T05:23:51.265Z,2.63
2023-05-07T05:26:19.579Z,2.80
2023-05-07T05:28:47.560Z,2.37
2023-05-07T05:31:15.665Z,2.10
2023-05-07T05:33:46.072Z,2.40
2023-05-07T05:36:15.387Z,1.90
2023-05-07T05:38:43.341Z,3.07
2023-05-07T05:41:11.374Z,3.03
2023-05-07T05:43:39.466Z,2.40
2023-05-07T05:46:09.273Z,1.83
2023-05-07T05:48:37.291Z,2.07
2023-05-07T05:51:06.956Z,1.80
2023-05-07T05:53:37.948Z,2.70
2023-05-07T05:56:06.784Z,2.00
2023-05-07T05:58:34.836Z,2.07
2023-05-07T06:01:04.640Z,3.17
2023-05-07T06:03:33.321Z,2.30
2023-05-07T06:06:02.230Z,3.37
2023-05-07T06:08:31.830Z,2.03
2023-05-07T06:11:03.567Z,2.73
2023-05-07T06:13:31.598Z,2.87
2023-05-07T06:15:59.908Z,2.53
2023-05-07T06:18:27.892Z,2.67
2023-05-07T06:20:56.477Z,2.97
2023-05-07T06:23:24.684Z,3.53
2023-05-07T06:25:53.236Z,2.60
2023-05-07T06:28:24.708Z,3.83
2023-05-07T06:30:53.145Z,2.93
2023-05-07T06:33:21.695Z,3.47
2023-05-07T06:35:49.762Z,3.30
2023-05-07T06:38:18.369Z,5.10
2023-05-07T06:40:52.310Z,4.17
2023-05-07T06:43:20.275Z,3.93
2023-05-07T06:45:49.660Z,4.70
2023-05-07T06:48:17.632Z,4.20
2023-05-07T06:50:45.646Z,4.13
2023-05-07T06:53:13.671Z,3.30
2023-05-07T06:55:45.381Z,2.93
2023-05-07T06:58:15.493Z,3.63
2023-05-07T07:00:43.467Z,3.43
2023-05-07T07:03:13.323Z,3.30
2023-05-07T07:05:45.708Z,3.47
2023-05-07T07:08:13.695Z,3.83
2023-05-07T07:10:41.654Z,3.43
2023-05-07T07:13:09.681Z,3.60
2023-05-07T07:15:39.293Z,3.83
2023-05-07T07:18:07.494Z,3.73
2023-05-07T07:20:36.917Z,3.63
2023-05-07T07:23:04.920Z,4.03
2023-05-07T07:25:33.190Z,3.73
2023-05-07T07:28:01.226Z,3.33
2023-05-07T07:30:29.227Z,3.10
2023-05-07T07:33:03.147Z,3.20
2023-05-07T07:35:31.302Z,2.97
2023-05-07T07:38:00.801Z,2.80
2023-05-07T07:40:28.916Z,2.50
2023-05-07T07:42:56.873Z,2.63
2023-05-07T07:45:25.313Z,2.83
2023-05-07T07:47:54.233Z,2.67
2023-05-07T07:50:39.931Z,2.40
2023-05-07T07:53:11.833Z,3.77
2023-05-07T07:55:41.132Z,3.17
2023-05-07T07:58:09.150Z,2.93
2023-05-07T08:00:37.201Z,3.00
2023-05-07T08:03:08.426Z,2.80
2023-05-07T08:05:40.334Z,2.60
2023-05-07T08:08:08.332Z,3.00
2023-05-07T08:10:39.278Z,3.07
2023-05-07T08:13:07.768Z,4.13
2023-05-07T08:15:35.831Z,3.03
2023-05-07T08:18:04.651Z,3.13
2023-05-07T08:20:32.824Z,3.80
2023-05-07T08:23:00.838Z,4.03
2023-05-07T08:25:28.837Z,4.17
2023-05-07T08:27:58.172Z,5.30
2023-05-07T08:30:26.253Z,4.43
2023-05-07T08:32:54.237Z,4.53
2023-05-07T08:35:22.484Z,4.30
2023-05-07T08:37:50.710Z,3.77
2023-05-07T08:40:19.147Z,4.17
2023-05-07T08:42:51.156Z,4.10
2023-05-07T08:45:24.020Z,5.63
2023-05-07T08:47:57.359Z,6.90
2023-05-07T08:50:25.513Z,6.17
2023-05-07T08:52:57.419Z,7.50
2023-05-07T08:55:26.273Z,7.30
2023-05-07T08:57:54.910Z,6.87
2023-05-07T09:00:26.427Z,6.80
2023-05-07T09:02:55.276Z,7.63
2023-05-07T09:05:23.584Z,7.30
2023-05-07T09:07:53.989Z,7.13
2023-05-07T09:10:23.412Z,8.03
2023-05-07T09:12:51.468Z,7.40
2023-05-07T09:15:20.708Z,7.10
2023-05-07T09:17:50.091Z,7.80
2023-05-07T09:20:18.770Z,7.83
2023-05-07T09:22:46.833Z,7.40
2023-05-07T09:25:15.003Z,7.10
2023-05-07T09:27:45.870Z,6.70
2023-05-07T09:30:15.611Z,6.70
2023-05-07T09:32:43.595Z,7.10
2023-05-07T09:35:20.177Z,6.83
2023-05-07T09:37:48.499Z,7.50
2023-05-07T09:40:23.707Z,7.00
2023-05-07T09:42:54.939Z,5.47
2023-05-07T09:45:27.799Z,5.80
2023-05-07T09:47:57.997Z,5.80
2023-05-07T09:50:30.053Z,8.10
2023-05-07T09:52:59.275Z,5.67
2023-05-07T09:55:27.925Z,5.03
2023-05-07T09:57:56.789Z,6.53
2023-05-07T10:00:25.842Z,5.60
2023-05-07T10:02:54.774Z,5.93
2023-05-07T10:05:24.298Z,6.20
2023-05-07T10:07:56.405Z,6.70
2023-05-07T10:10:25.883Z,6.13
2023-05-07T10:12:54.509Z,5.90
2023-05-07T10:15:26.330Z,5.53
2023-05-07T10:17:56.607Z,5.83
2023-05-07T10:20:25.233Z,5.83
2023-05-07T10:22:57.503Z,7.70
2023-05-07T10:25:30.719Z,4.47
2023-05-07T10:28:03.210Z,4.73
2023-05-07T10:30:42.304Z,5.00
2023-05-07T10:33:13.983Z,7.20
2023-05-07T10:35:44.561Z,6.13
2023-05-07T10:38:13.983Z,5.40
2023-05-07T10:40:42.338Z,5.33
2023-05-07T10:43:11.158Z,5.87
2023-05-07T10:45:39.259Z,5.97
2023-05-07T10:48:28.190Z,5.23
2023-05-07T10:51:24.025Z,5.00
2023-05-07T10:54:25.036Z,4.40
2023-05-07T10:56:53.090Z,3.77
2023-05-07T10:59:43.218Z,4.27
2023-05-07T11:02:15.182Z,4.23
2023-05-07T11:04:43.388Z,4.03
2023-05-07T11:07:32.595Z,5.30
2023-05-07T11:10:06.734Z,3.90
2023-05-07T11:12:57.085Z,4.30
2023-05-07T11:15:49.902Z,3.40
2023-05-07T11:18:18.878Z,3.80
2023-05-07T11:20:58.391Z,3.10
2023-05-07T11:24:13.412Z,3.60
2023-05-07T11:26:48.012Z,4.03
2023-05-07T11:29:20.092Z,6.43
2023-05-07T11:31:53.646Z,5.30
2023-05-07T11:34:26.029Z,4.00
2023-05-07T11:36:55.220Z,3.97
2023-05-07T11:39:31.311Z,4.70
2023-05-07T11:42:01.093Z,4.03
2023-05-07T11:44:44.388Z,3.17
2023-05-07T11:47:13.001Z,3.77
2023-05-07T11:49:41.613Z,3.60
2023-05-07T11:52:09.649Z,3.00
2023-05-07T11:54:38.827Z,2.90
2023-05-07T11:57:08.427Z,3.00
2023-05-07T11:59:42.174Z,2.83
2023-05-07T12:02:10.821Z,2.93
2023-05-07T12:04:40.631Z,3.10
2023-05-07T12:07:13.108Z,2.77
2023-05-07T12:09:41.214Z,2.87
2023-05-07T12:12:10.943Z,2.83
2023-05-07T12:14:41.258Z,3.57
2023-05-07T12:17:10.247Z,4.50
2023-05-07T12:19:39.599Z,3.40
2023-05-07T12:22:09.344Z,2.77
2023-05-07T12:24:47.824Z,2.90
2023-05-07T12:27:18.022Z,2.97
2023-05-07T12:29:47.262Z,2.60
2023-05-07T12:32:16.696Z,3.10
2023-05-07T12:34:45.712Z,2.40
2023-05-07T12:37:14.786Z,2.80
2023-05-07T12:39:47.138Z,3.13
2023-05-07T12:42:24.433Z,3.20
2023-05-07T12:44:53.247Z,3.17
2023-05-07T12:47:22.613Z,2.97
2023-05-07T12:49:51.114Z,2.90
2023-05-07T12:52:19.178Z,3.30
2023-05-07T12:54:47.632Z,3.27
2023-05-07T12:57:15.597Z,3.97
2023-05-07T12:59:44.948Z,3.43
2023-05-07T13:02:13.051Z,3.70
2023-05-07T13:04:41.184Z,3.60
2023-05-07T13:07:09.173Z,4.43
2023-05-07T13:09:38.054Z,3.00
2023-05-07T13:12:07.185Z,5.37
2023-05-07T13:14:35.183Z,3.50
2023-05-07T13:17:07.284Z,3.10
2023-05-07T13:19:35.278Z,2.73
2023-05-07T13:22:05.396Z,3.10
2023-05-07T13:24:33.596Z,3.50
2023-05-07T13:27:01.613Z,3.07
2023-05-07T13:29:31.248Z,2.90
2023-05-07T13:31:59.618Z,3.00
2023-05-07T13:34:29.846Z,3.10
2023-05-07T13:36:57.787Z,3.40
2023-05-07T13:39:27.872Z,4.07
2023-05-07T13:41:55.936Z,3.00
2023-05-07T13:44:26.973Z,3.03
2023-05-07T13:46:54.969Z,3.23
2023-05-07T13:49:25.258Z,3.17
2023-05-07T13:51:54.653Z,3.70
2023-05-07T13:54:22.651Z,4.70
2023-05-07T13:56:50.629Z,3.30
2023-05-07T13:59:18.606Z,3.50
2023-05-07T14:01:46.593Z,3.13
2023-05-07T14:04:17.586Z,3.50
2023-05-07T14:06:45.576Z,3.73
2023-05-07T14:09:17.918Z,4.60
2023-05-07T14:11:48.585Z,4.07
2023-05-07T14:14:16.557Z,3.80
2023-05-07T14:16:44.568Z,4.10
2023-05-07T14:19:14.971Z,4.10
2023-05-07T14:21:43.705Z,3.20
2023-05-07T14:24:12.111Z,3.00
2023-05-07T14:26:47.246Z,3.50
2023-05-07T14:29:16.631Z,3.50
2023-05-07T14:31:46.740Z,3.83
2023-05-07T14:34:15.230Z,3.70
2023-05-07T14:36:45.360Z,3.50
2023-05-07T14:39:14.405Z,4.50
2023-05-07T14:41:44.287Z,4.30
2023-05-07T14:44:12.235Z,4.50
2023-05-07T14:46:40.354Z,4.57
2023-05-07T14:49:14.745Z,4.50
2023-05-07T14:51:42.752Z,4.10
2023-05-07T14:54:13.480Z,4.90
2023-05-07T14:56:44.245Z,4.93
2023-05-07T14:59:13.685Z,4.43
2023-05-07T15:01:46.277Z,5.23
2023-05-07T15:04:14.488Z,4.30
2023-05-07T15:06:42.831Z,4.40
2023-05-07T15:09:11.353Z,4.40
2023-05-07T15:11:39.344Z,5.20
2023-05-07T15:14:07.553Z,5.60
2023-05-07T15:16:36.954Z,6.30
2023-05-07T15:19:04.974Z,5.37
2023-05-07T15:21:35.402Z,5.20
2023-05-07T15:24:03.544Z,5.13
2023-05-07T15:26:31.579Z,7.90
2023-05-07T15:28:59.543Z,5.13
2023-05-07T15:31:27.654Z,5.30
2023-05-07T15:33:57.457Z,5.87
2023-05-07T15:36:27.075Z,6.20
2023-05-07T15:38:55.688Z,5.67
2023-05-07T15:41:23.697Z,5.80
2023-05-07T15:43:54.326Z,6.03
2023-05-07T15:46:24.515Z,5.73
2023-05-07T15:48:53.003Z,5.23
2023-05-07T15:51:22.811Z,5.47
2023-05-07T15:53:52.002Z,5.87
2023-05-07T15:56:20.043Z,6.10
2023-05-07T15:58:48.313Z,5.87
2023-05-07T16:01:16.660Z,5.20
2023-05-07T16:03:46.881Z,5.60
2023-05-07T16:06:18.136Z,5.67
2023-05-07T16:08:47.515Z,5.80
2023-05-07T16:11:15.477Z,6.47
2023-05-07T16:13:43.728Z,5.90
2023-05-07T16:16:13.229Z,5.00
2023-05-07T16:18:41.215Z,5.17
2023-05-07T16:21:09.434Z,4.43
2023-05-07T16:23:37.508Z,4.90
2023-05-07T16:26:06.978Z,5.37
2023-05-07T16:28:36.687Z,5.07
2023-05-07T16:31:04.741Z,6.13
2023-05-07T16:33:35.210Z,6.03
2023-05-07T16:36:03.434Z,5.57
2023-05-07T16:38:33.033Z,5.10
2023-05-07T16:41:01.278Z,5.23
2023-05-07T16:43:30.832Z,6.47
2023-05-07T16:45:59.087Z,6.90
2023-05-07T16:48:27.278Z,6.17
2023-05-07T16:50:58.228Z,6.00
2023-05-07T16:53:26.408Z,5.87
2023-05-07T16:55:57.533Z,5.40
2023-05-07T16:58:27.220Z,5.77
2023-05-07T17:00:56.645Z,5.30
2023-05-07T17:03:27.124Z,5.90
2023-05-07T17:05:55.288Z,5.23
2023-05-07T17:08:26.867Z,5.40
2023-05-07T17:10:54.983Z,6.50
2023-05-07T17:13:23.236Z,6.17
2023-05-07T17:15:51.338Z,8.07
2023-05-07T17:18:20.832Z,6.00
2023-05-07T17:20:48.848Z,6.73
2023-05-07T17:23:18.203Z,7.00
2023-05-07T17:25:46.406Z,7.37
2023-05-07T17:28:14.492Z,5.83
2023-05-07T17:30:42.797Z,5.67
2023-05-07T17:33:20.670Z,6.30
2023-05-07T17:35:50.966Z,5.60
2023-05-07T17:38:18.990Z,5.37
2023-05-07T17:40:47.147Z,5.83
2023-05-07T17:43:15.585Z,5.87
2023-05-07T17:45:43.676Z,6.00
2023-05-07T17:48:11.712Z,6.17
2023-05-07T17:50:40.145Z,6.10
2023-05-07T17:53:10.941Z,6.40
2023-05-07T17:55:45.415Z,6.10
2023-05-07T17:58:14.244Z,6.63
2023-05-07T18:00:42.339Z,6.03
2023-05-07T18:03:12.347Z,5.80
2023-05-07T18:05:40.866Z,6.37
2023-05-07T18:08:10.346Z,6.10
2023-05-07T18:10:38.464Z,5.87
2023-05-07T18:13:06.508Z,5.90
2023-05-07T18:15:34.639Z,6.50
2023-05-07T18:18:03.725Z,8.30
2023-05-07T18:20:33.743Z,6.20
2023-05-07T18:23:01.871Z,6.00
2023-05-07T18:25:31.388Z,7.07
2023-05-07T18:27:59.370Z,7.30
2023-05-07T18:30:27.351Z,7.77
2023-05-07T18:32:55.428Z,7.67
2023-05-07T18:35:23.456Z,7.47
2023-05-07T18:37:51.447Z,7.70
2023-05-07T18:40:20.991Z,7.70
2023-05-07T18:42:53.389Z,7.87
2023-05-07T18:45:23.796Z,8.23
2023-05-07T18:47:58.253Z,8.73
2023-05-07T18:50:28.582Z,8.37
2023-05-07T18:53:01.398Z,8.80
2023-05-07T18:55:29.460Z,8.80
2023-05-07T18:58:04.683Z,9.83
2023-05-07T19:00:32.818Z,9.60
2023-05-07T19:03:01.035Z,9.17
2023-05-07T19:05:29.171Z,10.10
2023-05-07T19:08:02.726Z,10.03
2023-05-07T19:10:30.811Z,10.60
2023-05-07T19:13:00.395Z,8.87
2023-05-07T19:15:30.093Z,8.70
2023-05-07T19:18:00.304Z,8.90
2023-05-07T19:20:28.493Z,9.63
2023-05-07T19:23:03.197Z,8.60
2023-05-07T19:25:33.651Z,8.97
2023-05-07T19:28:15.173Z,7.57
2023-05-07T19:30:58.798Z,8.97
2023-05-07T19:33:39.536Z,8.00
2023-05-07T19:36:19.152Z,8.50
2023-05-07T19:39:00.988Z,7.87
2023-05-07T19:41:58.140Z,8.87
2023-05-07T19:44:44.476Z,7.77
2023-05-07T19:47:30.551Z,8.70
2023-05-07T19:50:04.301Z,7.87
2023-05-07T19:52:50.216Z,9.00
2023-05-07T19:55:27.545Z,8.30
2023-05-07T19:57:58.965Z,8.70
2023-05-07T20:00:35.119Z,8.80
2023-05-07T20:03:18.612Z,8.37
2023-05-07T20:06:00.864Z,8.33
2023-05-07T20:08:39.894Z,8.90
2023-05-07T20:11:11.929Z,8.63
2023-05-07T20:13:40.257Z,8.73
2023-05-07T20:16:09.908Z,8.83
2023-05-07T20:18:40.931Z,8.73
2023-05-07T20:21:09.350Z,9.50
2023-05-07T20:23:37.363Z,8.40
2023-05-07T20:26:05.470Z,8.70
2023-05-07T20:28:33.523Z,9.07
2023-05-07T20:31:01.574Z,9.37
2023-05-07T20:33:31.020Z,8.40
2023-05-07T20:35:59.697Z,8.67
2023-05-07T20:38:28.517Z,7.97
2023-05-07T20:40:56.541Z,7.37
2023-05-07T20:43:24.532Z,7.70
2023-05-07T20:46:00.393Z,8.07
2023-05-07T20:48:30.722Z,7.60
2023-05-07T20:50:59.542Z,7.53
2023-05-07T20:53:29.659Z,7.60
2023-05-07T20:55:58.213Z,6.97
2023-05-07T20:58:26.771Z,6.30
2023-05-07T21:00:55.539Z,6.47
2023-05-07T21:03:23.830Z,6.10
2023-05-07T21:06:00.230Z,5.60
2023-05-07T21:08:28.867Z,6.90
2023-05-07T21:10:57.129Z,5.80
2023-05-07T21:13:25.355Z,6.07
2023-05-07T21:15:53.465Z,5.20
2023-05-07T21:18:24.166Z,4.80
2023-05-07T21:20:52.133Z,5.00
2023-05-07T21:23:21.463Z,4.70
2023-05-07T21:25:51.438Z,5.10
2023-05-07T21:28:19.407Z,5.30
2023-05-07T21:30:47.355Z,4.87
2023-05-07T21:33:15.746Z,4.77
2023-05-07T21:35:45.632Z,4.70
2023-05-07T21:38:14.682Z,4.73
2023-05-07T21:40:46.965Z,4.80
2023-05-07T21:43:14.977Z,4.30
2023-05-07T21:45:42.967Z,4.73
2023-05-07T21:48:10.939Z,3.93
2023-05-07T21:50:39.095Z,4.40
2023-05-07T21:53:07.036Z,4.10
2023-05-07T21:55:37.150Z,4.10
2023-05-07T21:58:06.559Z,3.90
2023-05-07T22:00:34.570Z,3.90
2023-05-07T22:03:02.603Z,3.83
2023-05-07T22:05:30.803Z,3.80
2023-05-07T22:07:58.752Z,4.13
2023-05-07T22:10:26.726Z,3.97
2023-05-07T22:12:54.805Z,4.00
2023-05-07T22:15:24.298Z,3.83
2023-05-07T22:17:52.232Z,4.07
2023-05-07T22:20:20.278Z,4.00
2023-05-07T22:22:51.167Z,4.17
2023-05-07T22:25:20.753Z,3.83
2023-05-07T22:27:49.218Z,3.70
2023-05-07T22:30:17.489Z,3.77
2023-05-07T22:32:47.245Z,4.53
2023-05-07T22:35:15.277Z,4.10
2023-05-07T22:37:45.315Z,4.07
2023-05-07T22:40:14.758Z,3.90
2023-05-07T22:42:44.762Z,4.37
2023-05-07T22:45:15.621Z,4.47
2023-05-07T22:47:43.704Z,4.53
2023-05-07T22:50:16.055Z,4.27
2023-05-07T22:52:44.172Z,5.20
2023-05-07T22:55:12.120Z,5.20
2023-05-07T22:57:40.378Z,4.70
2023-05-07T23:00:09.743Z,5.00
2023-05-07T23:02:37.851Z,3.90
2023-05-07T23:05:07.073Z,4.33
2023-05-07T23:07:36.484Z,4.00
2023-05-07T23:10:04.904Z,4.50
2023-05-07T23:12:32.996Z,4.27
2023-05-07T23:15:00.975Z,4.50
2023-05-07T23:17:28.975Z,4.90
2023-05-07T23:19:57.261Z,4.70
2023-05-07T23:22:25.265Z,4.43
2023-05-07T23:24:54.864Z,5.17
2023-05-07T23:27:22.815Z,5.07
2023-05-07T23:29:51.005Z,5.40
2023-05-07T23:32:18.958Z,5.93
2023-05-07T23:34:51.115Z,4.90
2023-05-07T23:37:19.082Z,5.03
2023-05-07T23:39:47.065Z,4.63
2023-05-07T23:42:16.373Z,4.57
2023-05-07T23:44:44.436Z,5.43
2023-05-07T23:47:12.373Z,4.63
2023-05-07T23:49:40.835Z,5.17
2023-05-07T23:52:08.891Z,5.67
2023-05-07T23:54:37.306Z,5.00
2023-05-07T23:57:05.430Z,4.73
2023-05-07T23:59:35.022Z,6.37
